sensor_id;sensor_type;location;lat;lon;timestamp;P1;durP1;ratioP1;P2;durP2;ratioP2
37451;SDS011;23314;51.114;6.900;2023-08-31T00:02:03;4.90;;;2.63;;
37451;SDS011;23314;51.114;6.900;2023-08-31T00:04:29;11.60;;;3.07;;
37451;SDS011;23314;51.114;6.900;2023-08-31T00:06:55;5.43;;;2.80;;
37451;SDS011;23314;51.114;6.900;2023-08-31T00:09:22;4.67;;;2.70;;
37451;SDS011;23314;51.114;6.900;2023-08-31T00:11:49;3.43;;;2.63;;
37451;SDS011;23314;51.114;6.900;2023-08-31T00:14:15;9.03;;;3.03;;
37451;SDS011;23314;51.114;6.900;2023-08-31T00:16:40;5.67;;;2.80;;
37451;SDS011;23314;51.114;6.900;2023-08-31T00:19:06;4.53;;;3.47;;
37451;SDS011;23314;51.114;6.900;2023-08-31T00:21:31;6.07;;;3.17;;
37451;SDS011;23314;51.114;6.900;2023-08-31T00:23:56;5.50;;;3.03;;
37451;SDS011;23314;51.114;6.900;2023-08-31T00:26:22;11.00;;;3.70;;
37451;SDS011;23314;51.114;6.900;2023-08-31T00:28:47;9.13;;;3.53;;
37451;SDS011;23314;51.114;6.900;2023-08-31T00:31:12;4.83;;;3.23;;
37451;SDS011;23314;51.114;6.900;2023-08-31T00:33:38;13.93;;;3.57;;
37451;SDS011;23314;51.114;6.900;2023-08-31T00:36:03;5.13;;;3.50;;
37451;SDS011;23314;51.114;6.900;2023-08-31T00:38:32;9.00;;;4.20;;
37451;SDS011;23314;51.114;6.900;2023-08-31T00:40:58;7.27;;;4.03;;
37451;SDS011;23314;51.114;6.900;2023-08-31T00:43:23;6.43;;;3.90;;
37451;SDS011;23314;51.114;6.900;2023-08-31T00:45:50;9.97;;;4.20;;
37451;SDS011;23314;51.114;6.900;2023-08-31T00:48:16;7.33;;;3.70;;
37451;SDS011;23314;51.114;6.900;2023-08-31T00:50:46;6.67;;;3.90;;
37451;SDS011;23314;51.114;6.900;2023-08-31T00:53:12;9.47;;;3.90;;
37451;SDS011;23314;51.114;6.900;2023-08-31T00:55:38;8.30;;;4.23;;
37451;SDS011;23314;51.114;6.900;2023-08-31T00:58:06;7.83;;;4.00;;
37451;SDS011;23314;51.114;6.900;2023-08-31T01:03:43;6.40;;;3.90;;
37451;SDS011;23314;51.114;6.900;2023-08-31T01:12:11;8.30;;;3.97;;
37451;SDS011;23314;51.114;6.900;2023-08-31T01:17:15;6.30;;;4.20;;
37451;SDS011;23314;51.114;6.900;2023-08-31T01:19:52;9.20;;;4.20;;
37451;SDS011;23314;51.114;6.900;2023-08-31T01:22:30;9.60;;;4.50;;
37451;SDS011;23314;51.114;6.900;2023-08-31T01:25:01;6.27;;;4.40;;
37451;SDS011;23314;51.114;6.900;2023-08-31T01:27:30;10.60;;;4.70;;
37451;SDS011;23314;51.114;6.900;2023-08-31T01:29:56;9.13;;;4.57;;
37451;SDS011;23314;51.114;6.900;2023-08-31T01:32:22;8.50;;;4.80;;
37451;SDS011;23314;51.114;6.900;2023-08-31T01:34:47;7.87;;;4.37;;
37451;SDS011;23314;51.114;6.900;2023-08-31T01:37:16;11.33;;;4.90;;
37451;SDS011;23314;51.114;6.900;2023-08-31T01:40:07;6.20;;;4.90;;
37451;SDS011;23314;51.114;6.900;2023-08-31T01:42:37;7.27;;;5.03;;
37451;SDS011;23314;51.114;6.900;2023-08-31T01:45:03;4.97;;;4.47;;
37451;SDS011;23314;51.114;6.900;2023-08-31T01:47:30;9.23;;;4.90;;
37451;SDS011;23314;51.114;6.900;2023-08-31T01:49:56;9.87;;;4.67;;
37451;SDS011;23314;51.114;6.900;2023-08-31T01:52:21;9.30;;;4.97;;
37451;SDS011;23314;51.114;6.900;2023-08-31T01:54:47;7.13;;;5.20;;
37451;SDS011;23314;51.114;6.900;2023-08-31T01:57:12;5.57;;;4.17;;
37451;SDS011;23314;51.114;6.900;2023-08-31T01:59:38;5.50;;;4.97;;
37451;SDS011;23314;51.114;6.900;2023-08-31T02:02:03;8.07;;;4.73;;
37451;SDS011;23314;51.114;6.900;2023-08-31T02:04:29;9.17;;;5.40;;
37451;SDS011;23314;51.114;6.900;2023-08-31T02:06:54;7.60;;;5.00;;
37451;SDS011;23314;51.114;6.900;2023-08-31T02:09:19;7.87;;;5.53;;
37451;SDS011;23314;51.114;6.900;2023-08-31T02:11:45;7.30;;;5.37;;
37451;SDS011;23314;51.114;6.900;2023-08-31T02:14:10;11.70;;;5.50;;
37451;SDS011;23314;51.114;6.900;2023-08-31T02:16:35;6.33;;;5.00;;
37451;SDS011;23314;51.114;6.900;2023-08-31T02:19:01;7.60;;;5.20;;
37451;SDS011;23314;51.114;6.900;2023-08-31T02:21:26;8.50;;;5.37;;
37451;SDS011;23314;51.114;6.900;2023-08-31T02:23:51;6.97;;;4.73;;
37451;SDS011;23314;51.114;6.900;2023-08-31T02:26:17;7.43;;;5.10;;
37451;SDS011;23314;51.114;6.900;2023-08-31T02:28:42;7.57;;;5.70;;
37451;SDS011;23314;51.114;6.900;2023-08-31T02:31:13;8.13;;;5.10;;
37451;SDS011;23314;51.114;6.900;2023-08-31T02:33:39;7.23;;;5.27;;
37451;SDS011;23314;51.114;6.900;2023-08-31T02:36:05;6.77;;;5.13;;
37451;SDS011;23314;51.114;6.900;2023-08-31T02:38:30;8.67;;;5.80;;
37451;SDS011;23314;51.114;6.900;2023-08-31T02:40:56;6.97;;;5.07;;
37451;SDS011;23314;51.114;6.900;2023-08-31T02:43:21;6.53;;;4.90;;
37451;SDS011;23314;51.114;6.900;2023-08-31T02:45:46;7.00;;;4.90;;
37451;SDS011;23314;51.114;6.900;2023-08-31T02:48:12;8.83;;;4.73;;
37451;SDS011;23314;51.114;6.900;2023-08-31T02:50:38;8.60;;;4.90;;
37451;SDS011;23314;51.114;6.900;2023-08-31T02:53:04;5.73;;;5.17;;
37451;SDS011;23314;51.114;6.900;2023-08-31T02:55:32;9.27;;;5.53;;
37451;SDS011;23314;51.114;6.900;2023-08-31T02:57:57;6.77;;;5.07;;
37451;SDS011;23314;51.114;6.900;2023-08-31T03:00:24;7.57;;;4.83;;
37451;SDS011;23314;51.114;6.900;2023-08-31T03:02:49;5.27;;;4.77;;
37451;SDS011;23314;51.114;6.900;2023-08-31T03:05:17;7.30;;;5.00;;
37451;SDS011;23314;51.114;6.900;2023-08-31T03:07:42;6.33;;;4.83;;
37451;SDS011;23314;51.114;6.900;2023-08-31T03:10:08;11.10;;;5.20;;
37451;SDS011;23314;51.114;6.900;2023-08-31T03:12:34;6.53;;;4.57;;
37451;SDS011;23314;51.114;6.900;2023-08-31T03:14:59;5.73;;;4.03;;
37451;SDS011;23314;51.114;6.900;2023-08-31T03:17:24;6.80;;;3.93;;
37451;SDS011;23314;51.114;6.900;2023-08-31T03:19:49;6.67;;;4.23;;
37451;SDS011;23314;51.114;6.900;2023-08-31T03:22:15;6.63;;;4.10;;
37451;SDS011;23314;51.114;6.900;2023-08-31T03:24:40;5.77;;;4.30;;
37451;SDS011;23314;51.114;6.900;2023-08-31T03:27:05;5.93;;;4.33;;
37451;SDS011;23314;51.114;6.900;2023-08-31T03:29:31;7.03;;;4.83;;
37451;SDS011;23314;51.114;6.900;2023-08-31T03:31:57;6.70;;;4.70;;
37451;SDS011;23314;51.114;6.900;2023-08-31T03:34:22;7.73;;;4.50;;
37451;SDS011;23314;51.114;6.900;2023-08-31T03:36:48;14.17;;;4.70;;
37451;SDS011;23314;51.114;6.900;2023-08-31T03:39:15;5.10;;;4.53;;
37451;SDS011;23314;51.114;6.900;2023-08-31T03:41:40;6.90;;;4.90;;
37451;SDS011;23314;51.114;6.900;2023-08-31T03:44:06;8.60;;;5.43;;
37451;SDS011;23314;51.114;6.900;2023-08-31T03:46:31;6.93;;;4.80;;
37451;SDS011;23314;51.114;6.900;2023-08-31T03:48:56;8.77;;;5.30;;
37451;SDS011;23314;51.114;6.900;2023-08-31T03:51:22;7.13;;;4.97;;
37451;SDS011;23314;51.114;6.900;2023-08-31T03:53:47;6.50;;;4.70;;
37451;SDS011;23314;51.114;6.900;2023-08-31T03:56:12;5.87;;;5.30;;
37451;SDS011;23314;51.114;6.900;2023-08-31T03:58:38;8.53;;;4.83;;
37451;SDS011;23314;51.114;6.900;2023-08-31T04:01:03;6.20;;;4.67;;
37451;SDS011;23314;51.114;6.900;2023-08-31T04:03:30;6.10;;;5.13;;
37451;SDS011;23314;51.114;6.900;2023-08-31T04:05:55;6.93;;;5.30;;
37451;SDS011;23314;51.114;6.900;2023-08-31T04:08:21;10.60;;;5.57;;
37451;SDS011;23314;51.114;6.900;2023-08-31T04:10:47;9.07;;;5.20;;
37451;SDS011;23314;51.114;6.900;2023-08-31T04:13:12;8.97;;;5.53;;
37451;SDS011;23314;51.114;6.900;2023-08-31T04:15:37;6.57;;;5.10;;
37451;SDS011;23314;51.114;6.900;2023-08-31T04:18:03;7.60;;;5.33;;
37451;SDS011;23314;51.114;6.900;2023-08-31T04:20:28;10.27;;;5.23;;
37451;SDS011;23314;51.114;6.900;2023-08-31T04:22:54;9.20;;;5.93;;
37451;SDS011;23314;51.114;6.900;2023-08-31T04:25:19;8.57;;;5.07;;
37451;SDS011;23314;51.114;6.900;2023-08-31T04:27:44;6.73;;;5.23;;
37451;SDS011;23314;51.114;6.900;2023-08-31T04:30:11;7.43;;;5.57;;
37451;SDS011;23314;51.114;6.900;2023-08-31T04:32:37;8.03;;;5.23;;
37451;SDS011;23314;51.114;6.900;2023-08-31T04:35:03;7.00;;;4.93;;
37451;SDS011;23314;51.114;6.900;2023-08-31T04:37:30;9.77;;;5.60;;
37451;SDS011;23314;51.114;6.900;2023-08-31T04:39:57;8.40;;;5.40;;
37451;SDS011;23314;51.114;6.900;2023-08-31T04:42:23;6.20;;;5.23;;
37451;SDS011;23314;51.114;6.900;2023-08-31T04:44:49;8.03;;;5.73;;
37451;SDS011;23314;51.114;6.900;2023-08-31T04:47:14;8.00;;;5.30;;
37451;SDS011;23314;51.114;6.900;2023-08-31T04:49:40;7.67;;;5.60;;
37451;SDS011;23314;51.114;6.900;2023-08-31T04:52:05;9.93;;;5.60;;
37451;SDS011;23314;51.114;6.900;2023-08-31T04:54:31;5.80;;;4.90;;
37451;SDS011;23314;51.114;6.900;2023-08-31T04:56:56;10.20;;;5.60;;
37451;SDS011;23314;51.114;6.900;2023-08-31T04:59:21;6.80;;;5.50;;
37451;SDS011;23314;51.114;6.900;2023-08-31T05:01:47;8.43;;;5.83;;
37451;SDS011;23314;51.114;6.900;2023-08-31T05:04:12;8.60;;;5.63;;
37451;SDS011;23314;51.114;6.900;2023-08-31T05:06:37;14.43;;;6.57;;
37451;SDS011;23314;51.114;6.900;2023-08-31T05:09:03;9.07;;;5.57;;
37451;SDS011;23314;51.114;6.900;2023-08-31T05:11:29;9.03;;;6.07;;
37451;SDS011;23314;51.114;6.900;2023-08-31T05:13:55;9.40;;;5.97;;
37451;SDS011;23314;51.114;6.900;2023-08-31T05:16:20;8.83;;;5.70;;
37451;SDS011;23314;51.114;6.900;2023-08-31T05:18:45;13.23;;;5.70;;
37451;SDS011;23314;51.114;6.900;2023-08-31T05:21:11;10.77;;;5.90;;
37451;SDS011;23314;51.114;6.900;2023-08-31T05:23:36;8.60;;;5.17;;
37451;SDS011;23314;51.114;6.900;2023-08-31T05:26:02;9.23;;;6.10;;
37451;SDS011;23314;51.114;6.900;2023-08-31T05:28:27;7.17;;;5.30;;
37451;SDS011;23314;51.114;6.900;2023-08-31T05:30:54;10.13;;;5.90;;
37451;SDS011;23314;51.114;6.900;2023-08-31T05:33:22;7.40;;;5.43;;
37451;SDS011;23314;51.114;6.900;2023-08-31T05:35:48;10.63;;;6.00;;
37451;SDS011;23314;51.114;6.900;2023-08-31T05:38:13;7.90;;;5.83;;
37451;SDS011;23314;51.114;6.900;2023-08-31T05:40:39;7.17;;;5.20;;
37451;SDS011;23314;51.114;6.900;2023-08-31T05:43:06;8.53;;;5.57;;
37451;SDS011;23314;51.114;6.900;2023-08-31T05:45:32;6.50;;;5.27;;
37451;SDS011;23314;51.114;6.900;2023-08-31T05:47:58;7.83;;;5.33;;
37451;SDS011;23314;51.114;6.900;2023-08-31T05:50:23;8.83;;;5.30;;
37451;SDS011;23314;51.114;6.900;2023-08-31T05:52:49;9.50;;;5.60;;
37451;SDS011;23314;51.114;6.900;2023-08-31T05:55:14;5.43;;;4.70;;
37451;SDS011;23314;51.114;6.900;2023-08-31T05:57:39;5.67;;;4.40;;
37451;SDS011;23314;51.114;6.900;2023-08-31T06:00:05;6.00;;;4.67;;
37451;SDS011;23314;51.114;6.900;2023-08-31T06:02:33;7.43;;;5.00;;
37451;SDS011;23314;51.114;6.900;2023-08-31T06:04:58;4.93;;;4.47;;
37451;SDS011;23314;51.114;6.900;2023-08-31T06:07:24;6.57;;;4.50;;
37451;SDS011;23314;51.114;6.900;2023-08-31T06:09:49;6.13;;;4.50;;
37451;SDS011;23314;51.114;6.900;2023-08-31T06:12:14;10.13;;;4.63;;
37451;SDS011;23314;51.114;6.900;2023-08-31T06:14:40;4.60;;;4.20;;
37451;SDS011;23314;51.114;6.900;2023-08-31T06:17:05;6.17;;;3.93;;
37451;SDS011;23314;51.114;6.900;2023-08-31T06:19:30;6.93;;;4.50;;
37451;SDS011;23314;51.114;6.900;2023-08-31T06:21:55;5.87;;;4.30;;
37451;SDS011;23314;51.114;6.900;2023-08-31T06:24:21;7.37;;;4.50;;
37451;SDS011;23314;51.114;6.900;2023-08-31T06:26:46;9.60;;;4.87;;
37451;SDS011;23314;51.114;6.900;2023-08-31T06:29:11;7.07;;;4.40;;
37451;SDS011;23314;51.114;6.900;2023-08-31T06:31:37;5.67;;;4.03;;
37451;SDS011;23314;51.114;6.900;2023-08-31T06:34:02;8.53;;;4.57;;
37451;SDS011;23314;51.114;6.900;2023-08-31T06:36:29;6.07;;;4.10;;
37451;SDS011;23314;51.114;6.900;2023-08-31T06:38:55;8.37;;;4.90;;
37451;SDS011;23314;51.114;6.900;2023-08-31T06:41:20;6.27;;;4.30;;
37451;SDS011;23314;51.114;6.900;2023-08-31T06:43:45;8.90;;;4.30;;
37451;SDS011;23314;51.114;6.900;2023-08-31T06:46:11;5.60;;;4.00;;
37451;SDS011;23314;51.114;6.900;2023-08-31T06:48:36;7.17;;;4.40;;
37451;SDS011;23314;51.114;6.900;2023-08-31T06:51:02;5.20;;;3.77;;
37451;SDS011;23314;51.114;6.900;2023-08-31T06:53:29;6.77;;;4.10;;
37451;SDS011;23314;51.114;6.900;2023-08-31T06:55:54;6.23;;;3.90;;
37451;SDS011;23314;51.114;6.900;2023-08-31T06:58:20;5.37;;;3.57;;
37451;SDS011;23314;51.114;6.900;2023-08-31T07:00:45;6.27;;;4.00;;
37451;SDS011;23314;51.114;6.900;2023-08-31T07:03:11;5.83;;;3.50;;
37451;SDS011;23314;51.114;6.900;2023-08-31T07:05:36;4.10;;;3.33;;
37451;SDS011;23314;51.114;6.900;2023-08-31T07:08:07;5.60;;;3.47;;
37451;SDS011;23314;51.114;6.900;2023-08-31T07:10:33;7.13;;;3.63;;
37451;SDS011;23314;51.114;6.900;2023-08-31T07:13:01;5.43;;;3.40;;
37451;SDS011;23314;51.114;6.900;2023-08-31T07:15:27;7.33;;;3.40;;
37451;SDS011;23314;51.114;6.900;2023-08-31T07:17:53;13.40;;;3.50;;
37451;SDS011;23314;51.114;6.900;2023-08-31T07:20:18;4.63;;;3.20;;
37451;SDS011;23314;51.114;6.900;2023-08-31T07:22:43;5.73;;;3.13;;
37451;SDS011;23314;51.114;6.900;2023-08-31T07:25:09;7.30;;;3.50;;
37451;SDS011;23314;51.114;6.900;2023-08-31T07:27:34;7.17;;;3.10;;
37451;SDS011;23314;51.114;6.900;2023-08-31T07:30:00;8.60;;;3.63;;
37451;SDS011;23314;51.114;6.900;2023-08-31T07:32:25;5.00;;;2.87;;
37451;SDS011;23314;51.114;6.900;2023-08-31T07:34:51;4.53;;;3.10;;
37451;SDS011;23314;51.114;6.900;2023-08-31T07:37:16;5.37;;;3.30;;
37451;SDS011;23314;51.114;6.900;2023-08-31T07:39:41;3.70;;;3.00;;
37451;SDS011;23314;51.114;6.900;2023-08-31T07:42:07;5.00;;;3.07;;
37451;SDS011;23314;51.114;6.900;2023-08-31T07:44:32;4.50;;;3.00;;
37451;SDS011;23314;51.114;6.900;2023-08-31T07:46:57;5.80;;;3.30;;
37451;SDS011;23314;51.114;6.900;2023-08-31T07:49:23;7.00;;;3.40;;
37451;SDS011;23314;51.114;6.900;2023-08-31T07:51:48;6.23;;;3.27;;
37451;SDS011;23314;51.114;6.900;2023-08-31T07:54:20;6.33;;;3.30;;
37451;SDS011;23314;51.114;6.900;2023-08-31T07:56:46;5.23;;;3.10;;
37451;SDS011;23314;51.114;6.900;2023-08-31T07:59:11;5.07;;;2.70;;
37451;SDS011;23314;51.114;6.900;2023-08-31T08:01:37;6.07;;;2.67;;
37451;SDS011;23314;51.114;6.900;2023-08-31T08:04:02;4.53;;;2.40;;
37451;SDS011;23314;51.114;6.900;2023-08-31T08:06:28;5.67;;;3.00;;
37451;SDS011;23314;51.114;6.900;2023-08-31T08:08:53;4.17;;;2.97;;
37451;SDS011;23314;51.114;6.900;2023-08-31T08:11:19;4.80;;;2.77;;
37451;SDS011;23314;51.114;6.900;2023-08-31T08:13:44;4.00;;;2.70;;
37451;SDS011;23314;51.114;6.900;2023-08-31T08:16:09;5.53;;;2.93;;
37451;SDS011;23314;51.114;6.900;2023-08-31T08:18:35;3.83;;;2.60;;
37451;SDS011;23314;51.114;6.900;2023-08-31T08:21:00;7.37;;;2.73;;
37451;SDS011;23314;51.114;6.900;2023-08-31T08:23:25;3.90;;;2.60;;
37451;SDS011;23314;51.114;6.900;2023-08-31T08:25:51;6.87;;;2.27;;
37451;SDS011;23314;51.114;6.900;2023-08-31T08:28:16;5.63;;;2.37;;
37451;SDS011;23314;51.114;6.900;2023-08-31T08:30:41;5.50;;;2.50;;
37451;SDS011;23314;51.114;6.900;2023-08-31T08:33:08;4.40;;;2.50;;
37451;SDS011;23314;51.114;6.900;2023-08-31T08:35:33;6.97;;;2.70;;
37451;SDS011;23314;51.114;6.900;2023-08-31T08:37:59;3.30;;;2.20;;
37451;SDS011;23314;51.114;6.900;2023-08-31T08:40:24;5.57;;;2.67;;
37451;SDS011;23314;51.114;6.900;2023-08-31T08:42:50;2.63;;;2.00;;
37451;SDS011;23314;51.114;6.900;2023-08-31T08:45:18;2.23;;;2.03;;
37451;SDS011;23314;51.114;6.900;2023-08-31T08:47:49;3.03;;;2.10;;
37451;SDS011;23314;51.114;6.900;2023-08-31T08:50:16;5.40;;;2.30;;
37451;SDS011;23314;51.114;6.900;2023-08-31T08:52:42;5.80;;;2.27;;
37451;SDS011;23314;51.114;6.900;2023-08-31T08:55:08;5.57;;;2.23;;
37451;SDS011;23314;51.114;6.900;2023-08-31T08:57:34;4.07;;;2.27;;
37451;SDS011;23314;51.114;6.900;2023-08-31T09:00:00;3.77;;;2.10;;
37451;SDS011;23314;51.114;6.900;2023-08-31T09:02:25;5.67;;;2.20;;
37451;SDS011;23314;51.114;6.900;2023-08-31T09:04:50;4.17;;;2.10;;
37451;SDS011;23314;51.114;6.900;2023-08-31T09:07:19;2.60;;;2.00;;
37451;SDS011;23314;51.114;6.900;2023-08-31T09:09:53;2.60;;;2.20;;
37451;SDS011;23314;51.114;6.900;2023-08-31T09:12:22;5.28;;;2.20;;
37451;SDS011;23314;51.114;6.900;2023-08-31T09:15:02;4.00;;;2.45;;
37451;SDS011;23314;51.114;6.900;2023-08-31T09:17:39;3.80;;;2.25;;
37451;SDS011;23314;51.114;6.900;2023-08-31T09:20:07;4.32;;;2.13;;
37451;SDS011;23314;51.114;6.900;2023-08-31T09:22:34;5.88;;;2.30;;
37451;SDS011;23314;51.114;6.900;2023-08-31T09:24:59;4.30;;;2.42;;
37451;SDS011;23314;51.114;6.900;2023-08-31T09:27:25;3.38;;;2.13;;
37451;SDS011;23314;51.114;6.900;2023-08-31T09:29:50;3.85;;;2.08;;
37451;SDS011;23314;51.114;6.900;2023-08-31T09:32:19;3.95;;;2.05;;
37451;SDS011;23314;51.114;6.900;2023-08-31T09:34:45;4.50;;;1.83;;
37451;SDS011;23314;51.114;6.900;2023-08-31T09:37:10;3.67;;;1.70;;
37451;SDS011;23314;51.114;6.900;2023-08-31T09:39:36;2.08;;;1.45;;
37451;SDS011;23314;51.114;6.900;2023-08-31T09:42:02;3.65;;;1.83;;
37451;SDS011;23314;51.114;6.900;2023-08-31T09:44:28;4.03;;;1.73;;
37451;SDS011;23314;51.114;6.900;2023-08-31T09:46:54;3.20;;;1.95;;
37451;SDS011;23314;51.114;6.900;2023-08-31T09:49:20;2.37;;;1.97;;
37451;SDS011;23314;51.114;6.900;2023-08-31T09:51:48;3.65;;;1.92;;
37451;SDS011;23314;51.114;6.900;2023-08-31T09:54:18;3.78;;;2.35;;
37451;SDS011;23314;51.114;6.900;2023-08-31T09:56:46;6.30;;;2.45;;
37451;SDS011;23314;51.114;6.900;2023-08-31T09:59:13;4.72;;;2.20;;
37451;SDS011;23314;51.114;6.900;2023-08-31T10:01:40;3.53;;;2.25;;
37451;SDS011;23314;51.114;6.900;2023-08-31T10:04:07;3.80;;;2.30;;
37451;SDS011;23314;51.114;6.900;2023-08-31T10:06:38;7.32;;;2.28;;
37451;SDS011;23314;51.114;6.900;2023-08-31T10:09:04;4.18;;;2.30;;
37451;SDS011;23314;51.114;6.900;2023-08-31T10:11:30;6.75;;;2.53;;
37451;SDS011;23314;51.114;6.900;2023-08-31T10:13:56;6.50;;;2.13;;
37451;SDS011;23314;51.114;6.900;2023-08-31T10:16:22;4.20;;;1.92;;
37451;SDS011;23314;51.114;6.900;2023-08-31T10:18:50;5.60;;;2.05;;
37451;SDS011;23314;51.114;6.900;2023-08-31T10:21:17;1.95;;;1.60;;
37451;SDS011;23314;51.114;6.900;2023-08-31T10:23:46;6.07;;;2.08;;
37451;SDS011;23314;51.114;6.900;2023-08-31T10:26:12;4.13;;;2.00;;
37451;SDS011;23314;51.114;6.900;2023-08-31T10:28:48;3.05;;;2.10;;
37451;SDS011;23314;51.114;6.900;2023-08-31T10:31:16;3.88;;;2.20;;
37451;SDS011;23314;51.114;6.900;2023-08-31T10:33:43;6.30;;;1.85;;
37451;SDS011;23314;51.114;6.900;2023-08-31T10:36:19;5.97;;;2.28;;
37451;SDS011;23314;51.114;6.900;2023-08-31T10:38:46;3.15;;;1.92;;
37451;SDS011;23314;51.114;6.900;2023-08-31T10:43:56;7.53;;;2.35;;
37451;SDS011;23314;51.114;6.900;2023-08-31T10:46:26;7.07;;;2.05;;
37451;SDS011;23314;51.114;6.900;2023-08-31T10:49:15;6.53;;;2.92;;
37451;SDS011;23314;51.114;6.900;2023-08-31T10:51:43;4.43;;;1.83;;
37451;SDS011;23314;51.114;6.900;2023-08-31T10:56:51;2.72;;;1.67;;
37451;SDS011;23314;51.114;6.900;2023-08-31T10:59:25;4.25;;;2.00;;
37451;SDS011;23314;51.114;6.900;2023-08-31T11:01:55;2.83;;;2.00;;
37451;SDS011;23314;51.114;6.900;2023-08-31T11:04:24;6.03;;;2.25;;
37451;SDS011;23314;51.114;6.900;2023-08-31T11:09:44;6.13;;;1.90;;
37451;SDS011;23314;51.114;6.900;2023-08-31T11:12:10;4.72;;;2.00;;
37451;SDS011;23314;51.114;6.900;2023-08-31T11:14:36;4.35;;;1.63;;
37451;SDS011;23314;51.114;6.900;2023-08-31T11:17:02;2.80;;;1.95;;
37451;SDS011;23314;51.114;6.900;2023-08-31T11:19:30;4.03;;;2.13;;
37451;SDS011;23314;51.114;6.900;2023-08-31T11:21:56;3.13;;;2.08;;
37451;SDS011;23314;51.114;6.900;2023-08-31T11:24:21;5.80;;;2.13;;
37451;SDS011;23314;51.114;6.900;2023-08-31T11:26:50;3.78;;;1.70;;
37451;SDS011;23314;51.114;6.900;2023-08-31T11:29:16;4.25;;;2.25;;
37451;SDS011;23314;51.114;6.900;2023-08-31T11:31:41;3.47;;;2.05;;
37451;SDS011;23314;51.114;6.900;2023-08-31T11:34:08;4.85;;;2.20;;
37451;SDS011;23314;51.114;6.900;2023-08-31T11:36:38;4.85;;;1.85;;
37451;SDS011;23314;51.114;6.900;2023-08-31T11:39:04;4.40;;;1.63;;
37451;SDS011;23314;51.114;6.900;2023-08-31T11:41:30;1.70;;;1.30;;
37451;SDS011;23314;51.114;6.900;2023-08-31T11:43:57;3.35;;;1.90;;
37451;SDS011;23314;51.114;6.900;2023-08-31T11:46:23;3.85;;;2.03;;
37451;SDS011;23314;51.114;6.900;2023-08-31T11:48:49;4.18;;;2.03;;
37451;SDS011;23314;51.114;6.900;2023-08-31T11:51:15;3.38;;;2.08;;
37451;SDS011;23314;51.114;6.900;2023-08-31T11:53:41;4.57;;;1.83;;
37451;SDS011;23314;51.114;6.900;2023-08-31T11:56:06;4.13;;;2.00;;
37451;SDS011;23314;51.114;6.900;2023-08-31T11:58:32;3.50;;;1.98;;
37451;SDS011;23314;51.114;6.900;2023-08-31T12:00:57;3.25;;;1.83;;
37451;SDS011;23314;51.114;6.900;2023-08-31T12:03:23;4.72;;;1.75;;
37451;SDS011;23314;51.114;6.900;2023-08-31T12:05:51;2.80;;;1.60;;
37451;SDS011;23314;51.114;6.900;2023-08-31T12:08:25;2.60;;;1.50;;
37451;SDS011;23314;51.114;6.900;2023-08-31T12:10:53;3.17;;;1.70;;
37451;SDS011;23314;51.114;6.900;2023-08-31T12:13:19;3.38;;;1.80;;
37451;SDS011;23314;51.114;6.900;2023-08-31T12:15:44;4.30;;;1.90;;
37451;SDS011;23314;51.114;6.900;2023-08-31T12:18:13;3.58;;;1.63;;
37451;SDS011;23314;51.114;6.900;2023-08-31T12:20:43;2.50;;;1.70;;
37451;SDS011;23314;51.114;6.900;2023-08-31T12:23:09;3.90;;;1.85;;
37451;SDS011;23314;51.114;6.900;2023-08-31T12:25:35;2.70;;;1.50;;
37451;SDS011;23314;51.114;6.900;2023-08-31T12:28:00;3.30;;;1.60;;
37451;SDS011;23314;51.114;6.900;2023-08-31T12:30:26;2.85;;;1.73;;
37451;SDS011;23314;51.114;6.900;2023-08-31T12:32:51;3.42;;;1.73;;
37451;SDS011;23314;51.114;6.900;2023-08-31T12:35:17;3.90;;;1.92;;
37451;SDS011;23314;51.114;6.900;2023-08-31T12:37:42;2.38;;;1.63;;
37451;SDS011;23314;51.114;6.900;2023-08-31T12:40:08;5.88;;;1.95;;
37451;SDS011;23314;51.114;6.900;2023-08-31T12:42:35;4.45;;;1.95;;
37451;SDS011;23314;51.114;6.900;2023-08-31T12:45:00;4.45;;;2.05;;
37451;SDS011;23314;51.114;6.900;2023-08-31T12:47:26;3.67;;;1.95;;
37451;SDS011;23314;51.114;6.900;2023-08-31T12:49:51;3.72;;;2.10;;
37451;SDS011;23314;51.114;6.900;2023-08-31T12:52:16;7.70;;;1.90;;
37451;SDS011;23314;51.114;6.900;2023-08-31T12:54:42;4.47;;;2.15;;
37451;SDS011;23314;51.114;6.900;2023-08-31T12:57:07;6.85;;;2.10;;
37451;SDS011;23314;51.114;6.900;2023-08-31T12:59:32;3.22;;;2.08;;
37451;SDS011;23314;51.114;6.900;2023-08-31T13:01:58;3.25;;;2.25;;
37451;SDS011;23314;51.114;6.900;2023-08-31T13:04:23;5.95;;;2.20;;
37451;SDS011;23314;51.114;6.900;2023-08-31T13:06:49;3.17;;;1.85;;
37451;SDS011;23314;51.114;6.900;2023-08-31T13:09:14;3.80;;;2.30;;
37451;SDS011;23314;51.114;6.900;2023-08-31T13:11:40;5.20;;;2.03;;
37451;SDS011;23314;51.114;6.900;2023-08-31T13:14:06;4.82;;;2.00;;
37451;SDS011;23314;51.114;6.900;2023-08-31T13:16:32;3.55;;;1.90;;
37451;SDS011;23314;51.114;6.900;2023-08-31T13:18:58;5.15;;;2.05;;
37451;SDS011;23314;51.114;6.900;2023-08-31T13:21:23;3.38;;;1.70;;
37451;SDS011;23314;51.114;6.900;2023-08-31T13:23:49;4.68;;;2.20;;
37451;SDS011;23314;51.114;6.900;2023-08-31T13:26:16;5.32;;;2.22;;
37451;SDS011;23314;51.114;6.900;2023-08-31T13:28:41;7.93;;;2.80;;
37451;SDS011;23314;51.114;6.900;2023-08-31T13:31:08;4.90;;;1.90;;
37451;SDS011;23314;51.114;6.900;2023-08-31T13:33:33;7.10;;;2.38;;
37451;SDS011;23314;51.114;6.900;2023-08-31T13:35:59;8.00;;;2.22;;
37451;SDS011;23314;51.114;6.900;2023-08-31T13:38:25;5.43;;;1.80;;
37451;SDS011;23314;51.114;6.900;2023-08-31T13:40:54;3.47;;;2.10;;
37451;SDS011;23314;51.114;6.900;2023-08-31T13:43:21;8.43;;;2.45;;
37451;SDS011;23314;51.114;6.900;2023-08-31T13:45:48;9.20;;;2.50;;
37451;SDS011;23314;51.114;6.900;2023-08-31T13:48:13;6.38;;;2.47;;
37451;SDS011;23314;51.114;6.900;2023-08-31T13:50:38;4.68;;;2.25;;
37451;SDS011;23314;51.114;6.900;2023-08-31T13:53:04;5.30;;;2.30;;
37451;SDS011;23314;51.114;6.900;2023-08-31T13:55:29;4.03;;;2.40;;
37451;SDS011;23314;51.114;6.900;2023-08-31T13:58:03;3.72;;;2.28;;
37451;SDS011;23314;51.114;6.900;2023-08-31T14:00:29;3.75;;;2.28;;
37451;SDS011;23314;51.114;6.900;2023-08-31T14:02:54;5.05;;;2.25;;
37451;SDS011;23314;51.114;6.900;2023-08-31T14:05:23;3.15;;;2.15;;
37451;SDS011;23314;51.114;6.900;2023-08-31T14:07:49;4.15;;;1.90;;
37451;SDS011;23314;51.114;6.900;2023-08-31T14:10:15;7.38;;;2.42;;
37451;SDS011;23314;51.114;6.900;2023-08-31T14:12:40;3.72;;;1.90;;
37451;SDS011;23314;51.114;6.900;2023-08-31T14:15:06;3.83;;;2.20;;
37451;SDS011;23314;51.114;6.900;2023-08-31T14:17:32;3.35;;;2.10;;
37451;SDS011;23314;51.114;6.900;2023-08-31T14:20:01;4.57;;;2.22;;
37451;SDS011;23314;51.114;6.900;2023-08-31T14:22:31;3.33;;;1.85;;
37451;SDS011;23314;51.114;6.900;2023-08-31T14:25:00;2.33;;;1.80;;
37451;SDS011;23314;51.114;6.900;2023-08-31T14:27:26;5.07;;;2.17;;
37451;SDS011;23314;51.114;6.900;2023-08-31T14:29:53;6.30;;;2.30;;
37451;SDS011;23314;51.114;6.900;2023-08-31T14:32:18;3.35;;;2.40;;
37451;SDS011;23314;51.114;6.900;2023-08-31T14:34:44;3.17;;;2.03;;
37451;SDS011;23314;51.114;6.900;2023-08-31T14:37:09;5.07;;;2.58;;
37451;SDS011;23314;51.114;6.900;2023-08-31T14:39:34;5.60;;;2.03;;
37451;SDS011;23314;51.114;6.900;2023-08-31T14:42:00;3.90;;;2.30;;
37451;SDS011;23314;51.114;6.900;2023-08-31T14:44:25;2.95;;;1.70;;
37451;SDS011;23314;51.114;6.900;2023-08-31T14:46:51;3.83;;;2.08;;
37451;SDS011;23314;51.114;6.900;2023-08-31T14:49:17;3.22;;;1.90;;
37451;SDS011;23314;51.114;6.900;2023-08-31T14:51:42;4.85;;;2.17;;
37451;SDS011;23314;51.114;6.900;2023-08-31T14:54:08;2.85;;;2.10;;
37451;SDS011;23314;51.114;6.900;2023-08-31T14:56:33;4.75;;;2.42;;
37451;SDS011;23314;51.114;6.900;2023-08-31T14:58:59;6.68;;;3.00;;
37451;SDS011;23314;51.114;6.900;2023-08-31T15:01:24;5.28;;;2.60;;
37451;SDS011;23314;51.114;6.900;2023-08-31T15:03:50;3.03;;;2.15;;